createdAt,value
2018-06-28T00:02:12.249Z,98565.00
2018-06-28T00:06:14.420Z,98567.00
2018-06-28T00:10:16.547Z,98567.00
2018-06-28T00:14:18.714Z,98570.00
2018-06-28T00:18:20.860Z,98570.00
2018-06-28T00:22:23.023Z,98563.00
2018-06-28T00:26:25.225Z,98563.00
2018-06-28T00:30:27.392Z,98570.00
2018-06-28T00:34:29.509Z,98584.00
2018-06-28T00:38:31.692Z,98574.00
2018-06-28T00:42:33.873Z,98573.00
2018-06-28T00:46:36.010Z,98573.00
2018-06-28T00:50:38.159Z,98573.00
2018-06-28T00:54:40.295Z,98573.00
2018-06-28T00:58:42.465Z,98557.00
2018-06-28T01:02:44.600Z,98565.00
2018-06-28T01:06:46.755Z,98556.00
2018-06-28T01:10:48.899Z,98555.00
2018-06-28T01:14:51.028Z,98545.00
2018-06-28T01:18:53.191Z,98557.00
2018-06-28T01:22:55.355Z,98550.00
2018-06-28T01:26:57.542Z,98550.00
2018-06-28T01:30:59.965Z,98542.00
2018-06-28T01:35:02.133Z,98555.00
2018-06-28T01:39:07.310Z,98553.00
2018-06-28T01:43:34.528Z,98548.00
2018-06-28T01:47:36.715Z,98552.00
2018-06-28T01:51:38.835Z,98551.00
2018-06-28T01:55:41.688Z,98556.00
2018-06-28T01:59:43.800Z,98552.00
2018-06-28T02:03:45.924Z,98550.00
2018-06-28T02:07:48.095Z,98551.00
2018-06-28T02:11:50.236Z,98540.00
2018-06-28T02:15:52.391Z,98538.00
2018-06-28T02:19:54.548Z,98529.00
2018-06-28T02:23:56.679Z,98529.00
2018-06-28T02:27:58.821Z,98536.00
2018-06-28T02:32:01.205Z,98529.00
2018-06-28T02:36:04.347Z,98523.00
2018-06-28T02:40:06.630Z,98526.00
2018-06-28T02:44:08.756Z,98516.00
2018-06-28T02:48:11.159Z,98513.00
2018-06-28T02:52:13.296Z,98509.00
2018-06-28T02:56:15.446Z,98511.00
2018-06-28T03:00:17.583Z,98522.00
2018-06-28T03:04:19.715Z,98526.00
2018-06-28T03:08:21.866Z,98525.00
2018-06-28T03:12:24.001Z,98519.00
2018-06-28T03:16:26.151Z,98530.00
2018-06-28T03:20:28.287Z,98525.00
2018-06-28T03:24:30.452Z,98527.00
2018-06-28T03:28:32.584Z,98530.00
2018-06-28T03:32:34.716Z,98531.00
2018-06-28T03:36:37.260Z,98537.00
2018-06-28T03:40:39.389Z,98529.00
2018-06-28T03:44:41.552Z,98529.00
2018-06-28T03:48:43.729Z,98523.00
2018-06-28T03:52:45.927Z,98521.00
2018-06-28T03:56:48.133Z,98520.00
2018-06-28T04:00:50.327Z,98522.00
2018-06-28T04:04:52.489Z,98518.00
2018-06-28T04:08:54.670Z,98519.00
2018-06-28T04:12:56.847Z,98520.00
2018-06-28T04:16:59.001Z,98523.00
2018-06-28T04:21:01.324Z,98521.00
2018-06-28T04:25:03.998Z,98522.00
2018-06-28T04:29:06.152Z,98515.00
2018-06-28T04:33:08.359Z,98518.00
2018-06-28T04:37:10.707Z,98516.00
2018-06-28T04:41:13.795Z,98519.00
2018-06-28T04:45:15.919Z,98512.00
2018-06-28T04:49:18.035Z,98516.00
2018-06-28T04:53:20.352Z,98518.00
2018-06-28T04:57:23.256Z,98521.00
2018-06-28T05:01:25.472Z,98522.00
2018-06-28T05:05:27.634Z,98522.00
2018-06-28T05:09:29.815Z,98516.00
2018-06-28T05:13:32.036Z,98516.00
2018-06-28T05:17:34.237Z,98517.00
2018-06-28T05:21:36.397Z,98520.00
2018-06-28T05:25:38.544Z,98516.00
2018-06-28T05:29:40.756Z,98519.00
2018-06-28T05:33:43.095Z,98520.00
2018-06-28T05:37:45.237Z,98521.00
2018-06-28T05:41:47.407Z,98525.00
2018-06-28T05:45:49.567Z,98528.00
2018-06-28T05:49:51.835Z,98534.00
2018-06-28T05:53:53.976Z,98530.00
2018-06-28T05:57:56.147Z,98518.00
2018-06-28T06:01:58.420Z,98535.00
2018-06-28T06:06:00.639Z,98524.00
2018-06-28T06:10:03.577Z,98524.00
2018-06-28T06:14:05.901Z,98517.00
2018-06-28T06:18:08.208Z,98523.00
2018-06-28T06:22:10.364Z,98527.00
2018-06-28T06:26:12.692Z,98525.00
2018-06-28T06:30:14.834Z,98523.00
2018-06-28T06:34:17.022Z,98530.00
2018-06-28T06:38:19.200Z,98518.00
2018-06-28T06:42:21.368Z,98524.00
2018-06-28T06:46:23.608Z,98531.00
2018-06-28T06:50:25.753Z,98519.00
2018-06-28T06:54:27.898Z,98524.00
2018-06-28T06:58:30.051Z,98525.00
2018-06-28T07:02:32.225Z,98521.00
2018-06-28T07:06:34.400Z,98519.00
2018-06-28T07:10:36.610Z,98508.00
2018-06-28T07:14:38.816Z,98517.00
2018-06-28T07:18:41.038Z,98511.00
2018-06-28T07:22:43.225Z,98504.00
2018-06-28T07:26:45.390Z,98507.00
2018-06-28T07:30:47.562Z,98508.00
2018-06-28T07:34:50.472Z,98493.00
2018-06-28T07:38:52.745Z,98492.00
2018-06-28T07:42:54.976Z,98500.00
2018-06-28T07:46:57.215Z,98491.00
2018-06-28T07:50:59.351Z,98490.00
2018-06-28T07:55:01.524Z,98490.00
2018-06-28T07:59:03.741Z,98484.00
2018-06-28T08:03:05.911Z,98493.00
2018-06-28T08:07:08.106Z,98475.00
2018-06-28T08:11:10.286Z,98474.00
2018-06-28T08:15:12.469Z,98475.00
2018-06-28T08:19:14.639Z,98476.00
2018-06-28T08:23:16.833Z,98474.00
2018-06-28T08:27:19.010Z,98471.00
2018-06-28T08:31:21.224Z,98473.00
2018-06-28T08:35:23.431Z,98476.00
2018-06-28T08:39:25.595Z,98483.00
2018-06-28T08:43:27.880Z,98489.00
2018-06-28T08:47:30.018Z,98455.00
2018-06-28T08:51:32.304Z,98473.00
2018-06-28T08:55:34.439Z,98475.00
2018-06-28T08:59:36.615Z,98471.00
2018-06-28T09:03:38.781Z,98466.00
2018-06-28T09:07:40.944Z,98472.00
2018-06-28T09:11:43.187Z,98470.00
2018-06-28T09:15:45.384Z,98473.00
2018-06-28T09:19:47.555Z,98453.00
2018-06-28T09:23:49.753Z,98449.00
2018-06-28T09:27:52.032Z,98457.00
2018-06-28T09:31:54.272Z,98458.00
2018-06-28T09:35:56.606Z,98450.00
2018-06-28T09:39:58.773Z,98453.00
2018-06-28T09:44:01.108Z,98458.00
2018-06-28T09:48:03.324Z,98446.00
2018-06-28T09:52:05.512Z,98439.00
2018-06-28T09:56:08.230Z,98438.00
2018-06-28T10:00:10.469Z,98427.00
2018-06-28T10:04:12.643Z,98420.00
2018-06-28T10:08:14.827Z,98450.00
2018-06-28T10:12:17.064Z,98418.00
2018-06-28T10:16:19.351Z,98414.00
2018-06-28T10:20:21.562Z,98419.00
2018-06-28T10:24:23.803Z,98398.00
2018-06-28T10:28:25.959Z,98427.00
2018-06-28T10:32:28.135Z,98410.00
2018-06-28T10:36:30.386Z,98401.00
2018-06-28T10:40:32.543Z,98396.00
2018-06-28T10:44:34.735Z,98391.00
2018-06-28T10:48:36.948Z,98397.00
2018-06-28T10:52:39.166Z,98386.00
2018-06-28T10:56:41.457Z,98371.00
2018-06-28T11:00:43.688Z,98369.00
2018-06-28T11:04:46.040Z,98354.00
2018-06-28T11:08:48.872Z,98376.00
2018-06-28T11:12:51.079Z,98356.00
2018-06-28T11:16:53.425Z,98338.00
2018-06-28T11:20:55.584Z,98361.00
2018-06-28T11:24:57.817Z,98355.00
2018-06-28T11:29:00.058Z,98357.00
2018-06-28T11:33:02.254Z,98355.00
2018-06-28T11:37:04.772Z,98347.00
2018-06-28T11:41:06.980Z,98344.00
2018-06-28T11:45:09.176Z,98337.00
2018-06-28T11:49:11.362Z,98330.00
2018-06-28T11:53:19.789Z,98324.00
2018-06-28T11:57:28.324Z,98325.00
2018-06-28T12:01:30.556Z,98324.00
2018-06-28T12:05:32.828Z,98329.00
2018-06-28T12:09:34.995Z,98328.00
2018-06-28T12:13:37.208Z,98315.00
2018-06-28T12:17:39.415Z,98314.00
2018-06-28T12:21:41.608Z,98314.00
2018-06-28T12:25:44.013Z,98308.00
2018-06-28T12:29:46.244Z,98299.00
2018-06-28T12:33:48.512Z,98292.00
2018-06-28T12:37:50.683Z,98285.00
2018-06-28T12:41:53.540Z,98297.00
2018-06-28T12:45:56.501Z,98297.00
2018-06-28T12:49:58.819Z,98307.00
2018-06-28T12:54:00.964Z,98285.00
2018-06-28T12:58:03.163Z,98274.00
2018-06-28T13:02:05.479Z,98274.00
2018-06-28T13:06:07.719Z,98279.00
2018-06-28T13:10:13.799Z,98267.00
2018-06-28T13:14:15.971Z,98255.00
2018-06-28T13:18:18.164Z,98260.00
2018-06-28T13:22:20.335Z,98257.00
2018-06-28T13:26:22.549Z,98246.00
2018-06-28T13:30:24.750Z,98248.00
2018-06-28T13:34:27.286Z,98235.00
2018-06-28T13:38:29.483Z,98249.00
2018-06-28T13:42:31.680Z,98219.00
2018-06-28T13:46:33.924Z,98229.00
2018-06-28T13:50:36.293Z,98221.00
2018-06-28T13:54:38.461Z,98215.00
2018-06-28T13:58:40.641Z,98225.00
2018-06-28T14:02:42.812Z,98215.00
2018-06-28T14:06:45.127Z,98223.00
2018-06-28T14:10:47.286Z,98208.00
2018-06-28T14:14:50.524Z,98198.00
2018-06-28T14:18:52.996Z,98181.00
2018-06-28T14:22:55.267Z,98181.00
2018-06-28T14:26:57.895Z,98192.00
2018-06-28T14:31:00.093Z,98195.00
2018-06-28T14:35:02.680Z,98177.00
2018-06-28T14:39:07.393Z,98180.00
2018-06-28T14:43:09.716Z,98180.00
2018-06-28T14:47:12.037Z,98177.00
2018-06-28T14:51:14.215Z,98183.00
2018-06-28T14:55:16.416Z,98166.00
2018-06-28T14:59:18.601Z,98144.00
2018-06-28T15:03:20.784Z,98154.00
2018-06-28T15:07:23.048Z,98161.00
2018-06-28T15:11:25.228Z,98182.00
2018-06-28T15:15:27.465Z,98161.00
2018-06-28T15:19:29.640Z,98155.00
2018-06-28T15:23:31.863Z,98162.00
2018-06-28T15:27:34.271Z,98162.00
2018-06-28T15:31:37.279Z,98146.00
2018-06-28T15:35:40.732Z,98156.00
2018-06-28T15:39:42.929Z,98161.00
2018-06-28T15:43:45.575Z,98157.00
2018-06-28T15:47:48.240Z,98150.00
2018-06-28T15:51:50.439Z,98137.00
2018-06-28T15:55:52.655Z,98133.00
2018-06-28T15:59:54.879Z,98132.00
2018-06-28T16:03:57.055Z,98139.00
2018-06-28T16:07:59.218Z,98139.00
2018-06-28T16:12:01.408Z,98135.00
2018-06-28T16:16:03.619Z,98129.00
2018-06-28T16:20:05.920Z,98133.00
2018-06-28T16:24:08.119Z,98131.00
2018-06-28T16:28:10.286Z,98136.00
2018-06-28T16:32:13.325Z,98142.00
2018-06-28T16:36:16.644Z,98142.00
2018-06-28T16:40:19.475Z,98135.00
2018-06-28T16:44:21.646Z,98137.00
2018-06-28T16:48:23.857Z,98134.00
2018-06-28T16:52:26.063Z,98133.00
2018-06-28T16:56:29.105Z,98113.00
2018-06-28T17:00:31.275Z,98132.00
2018-06-28T17:04:33.459Z,98124.00
2018-06-28T17:08:36.204Z,98122.00
2018-06-28T17:12:38.325Z,98115.00
2018-06-28T17:16:40.476Z,98121.00
2018-06-28T17:20:43.095Z,98128.00
2018-06-28T17:24:45.264Z,98140.00
2018-06-28T17:28:47.439Z,98129.00
2018-06-28T17:32:49.641Z,98121.00
2018-06-28T17:36:51.786Z,98127.00
2018-06-28T17:40:53.985Z,98124.00
2018-06-28T17:44:56.205Z,98126.00
2018-06-28T17:48:58.895Z,98128.00
2018-06-28T17:53:01.134Z,98125.00
2018-06-28T17:57:03.295Z,98119.00
2018-06-28T18:01:05.444Z,98120.00
2018-06-28T18:05:07.611Z,98108.00
2018-06-28T18:09:10.538Z,98118.00
2018-06-28T18:13:12.694Z,98114.00
2018-06-28T18:17:14.867Z,98111.00
2018-06-28T18:21:17.219Z,98115.00
2018-06-28T18:25:19.645Z,98114.00
2018-06-28T18:29:22.237Z,98116.00
2018-06-28T18:33:24.435Z,98118.00
2018-06-28T18:37:26.568Z,98119.00
2018-06-28T18:41:28.756Z,98120.00
2018-06-28T18:45:30.968Z,98125.00
2018-06-28T18:49:33.142Z,98111.00
2018-06-28T18:53:35.482Z,98113.00
2018-06-28T18:57:37.740Z,98124.00
2018-06-28T19:01:39.927Z,98128.00
2018-06-28T19:05:42.563Z,98116.00
2018-06-28T19:09:50.408Z,98122.00
2018-06-28T19:13:58.419Z,98123.00
2018-06-28T19:18:00.578Z,98133.00
2018-06-28T19:22:08.393Z,98126.00
2018-06-28T19:26:10.569Z,98124.00
2018-06-28T19:30:19.509Z,98137.00
2018-06-28T19:34:21.879Z,98131.00
2018-06-28T19:38:24.165Z,98130.00
2018-06-28T19:42:32.208Z,98136.00
2018-06-28T19:46:34.390Z,98140.00
2018-06-28T19:50:42.278Z,98149.00
2018-06-28T19:54:44.492Z,98152.00
2018-06-28T19:58:46.797Z,98149.00
2018-06-28T20:02:55.455Z,98151.00
2018-06-28T20:06:57.624Z,98163.00
2018-06-28T20:10:59.834Z,98157.00
2018-06-28T20:15:07.619Z,98163.00
2018-06-28T20:19:15.405Z,98162.00
2018-06-28T20:23:17.571Z,98161.00
2018-06-28T20:27:25.509Z,98169.00
2018-06-28T20:31:33.736Z,98169.00
2018-06-28T20:35:36.003Z,98164.00
2018-06-28T20:39:38.171Z,98168.00
2018-06-28T20:43:40.367Z,98169.00
2018-06-28T20:47:42.807Z,98166.00
2018-06-28T20:51:45.011Z,98175.00
2018-06-28T20:55:47.159Z,98175.00
2018-06-28T20:59:49.308Z,98177.00
2018-06-28T21:03:51.516Z,98175.00
2018-06-28T21:07:53.682Z,98170.00
2018-06-28T21:11:55.864Z,98171.00
2018-06-28T21:15:58.044Z,98181.00
2018-06-28T21:20:00.472Z,98179.00
2018-06-28T21:24:03.402Z,98179.00
2018-06-28T21:28:05.884Z,98174.00
2018-06-28T21:32:08.078Z,98179.00
2018-06-28T21:36:10.523Z,98182.00
2018-06-28T21:40:12.713Z,98181.00
2018-06-28T21:44:14.938Z,98175.00
2018-06-28T21:48:17.088Z,98181.00
2018-06-28T21:52:19.255Z,98174.00
2018-06-28T21:56:21.449Z,98184.00
2018-06-28T22:00:33.912Z,98175.00
2018-06-28T22:04:36.042Z,98176.00
2018-06-28T22:08:38.241Z,98173.00
2018-06-28T22:12:40.379Z,98170.00
2018-06-28T22:16:42.526Z,98168.00
2018-06-28T22:20:44.740Z,98168.00
2018-06-28T22:24:46.937Z,98159.00
2018-06-28T22:28:49.151Z,98161.00
2018-06-28T22:32:52.195Z,98160.00
2018-06-28T22:36:54.391Z,98163.00
2018-06-28T22:40:56.579Z,98165.00
2018-06-28T22:44:58.732Z,98164.00
2018-06-28T22:49:00.892Z,98166.00
2018-06-28T22:53:03.077Z,98155.00
2018-06-28T22:57:05.223Z,98161.00
2018-06-28T23:01:07.475Z,98153.00
2018-06-28T23:05:09.640Z,98153.00
2018-06-28T23:09:11.797Z,98143.00
2018-06-28T23:13:13.998Z,98150.00
2018-06-28T23:17:16.220Z,98156.00
2018-06-28T23:21:19.639Z,98156.00
2018-06-28T23:25:22.383Z,98156.00
2018-06-28T23:29:24.683Z,98150.00
2018-06-28T23:33:26.844Z,98154.00
2018-06-28T23:37:29.011Z,98152.00
2018-06-28T23:41:31.207Z,98140.00
2018-06-28T23:45:33.649Z,98134.00
2018-06-28T23:49:35.879Z,98139.00
2018-06-28T23:53:38.020Z,98133.00
2018-06-28T23:57:40.258Z,98131.00
